sensor_id;sensor_type;location;lat;lon;timestamp;temperature;humidity
51908;DHT22;39320;53.214;6.556;2023-02-21T00:01:15;10.00;99.90
51908;DHT22;39320;53.214;6.556;2023-02-21T00:04:00;10.00;99.90
51908;DHT22;39320;53.214;6.556;2023-02-21T00:06:44;10.00;99.90
51908;DHT22;39320;53.214;6.556;2023-02-21T00:09:29;10.00;99.90
51908;DHT22;39320;53.214;6.556;2023-02-21T00:12:13;10.00;99.90
51908;DHT22;39320;53.214;6.556;2023-02-21T00:14:57;10.00;99.90
51908;DHT22;39320;53.214;6.556;2023-02-21T00:17:41;10.00;99.90
51908;DHT22;39320;53.214;6.556;2023-02-21T00:20:25;10.00;99.90
51908;DHT22;39320;53.214;6.556;2023-02-21T00:23:10;10.00;99.90
51908;DHT22;39320;53.214;6.556;2023-02-21T00:25:54;10.00;99.90
51908;DHT22;39320;53.214;6.556;2023-02-21T00:28:38;10.00;99.90
51908;DHT22;39320;53.214;6.556;2023-02-21T00:31:23;10.00;99.90
51908;DHT22;39320;53.214;6.556;2023-02-21T00:34:07;10.00;99.90
51908;DHT22;39320;53.214;6.556;2023-02-21T00:36:52;10.00;99.90
51908;DHT22;39320;53.214;6.556;2023-02-21T00:39:36;10.10;99.90
51908;DHT22;39320;53.214;6.556;2023-02-21T00:42:21;10.00;99.90
51908;DHT22;39320;53.214;6.556;2023-02-21T00:45:05;10.00;99.90
51908;DHT22;39320;53.214;6.556;2023-02-21T00:47:50;10.00;99.90
51908;DHT22;39320;53.214;6.556;2023-02-21T00:50:34;10.00;99.90
51908;DHT22;39320;53.214;6.556;2023-02-21T00:53:18;10.10;99.90
51908;DHT22;39320;53.214;6.556;2023-02-21T00:56:02;10.10;99.90
51908;DHT22;39320;53.214;6.556;2023-02-21T00:58:47;10.00;99.90
51908;DHT22;39320;53.214;6.556;2023-02-21T01:01:32;10.00;99.90
51908;DHT22;39320;53.214;6.556;2023-02-21T01:04:16;10.00;99.90
51908;DHT22;39320;53.214;6.556;2023-02-21T01:07:00;10.00;99.90
51908;DHT22;39320;53.214;6.556;2023-02-21T01:09:44;10.00;99.90
51908;DHT22;39320;53.214;6.556;2023-02-21T01:12:28;10.00;99.90
51908;DHT22;39320;53.214;6.556;2023-02-21T01:15:13;10.00;99.90
51908;DHT22;39320;53.214;6.556;2023-02-21T01:17:58;10.00;99.90
51908;DHT22;39320;53.214;6.556;2023-02-21T01:20:42;10.00;99.90
51908;DHT22;39320;53.214;6.556;2023-02-21T01:23:26;10.00;99.90
51908;DHT22;39320;53.214;6.556;2023-02-21T01:26:11;10.00;99.90
51908;DHT22;39320;53.214;6.556;2023-02-21T01:28:55;10.00;99.90
51908;DHT22;39320;53.214;6.556;2023-02-21T01:31:39;10.00;99.90
51908;DHT22;39320;53.214;6.556;2023-02-21T01:34:23;10.00;99.90
51908;DHT22;39320;53.214;6.556;2023-02-21T01:37:07;10.00;99.90
51908;DHT22;39320;53.214;6.556;2023-02-21T01:39:52;10.00;99.90
51908;DHT22;39320;53.214;6.556;2023-02-21T01:42:36;10.00;99.90
51908;DHT22;39320;53.214;6.556;2023-02-21T01:48:10;10.00;99.90
51908;DHT22;39320;53.214;6.556;2023-02-21T01:50:57;10.00;99.90
51908;DHT22;39320;53.214;6.556;2023-02-21T01:53:42;10.00;99.90
51908;DHT22;39320;53.214;6.556;2023-02-21T01:56:28;10.00;99.90
51908;DHT22;39320;53.214;6.556;2023-02-21T01:59:15;10.00;99.90
51908;DHT22;39320;53.214;6.556;2023-02-21T02:02:09;9.90;99.90
51908;DHT22;39320;53.214;6.556;2023-02-21T02:04:56;9.90;99.90
51908;DHT22;39320;53.214;6.556;2023-02-21T02:07:41;9.90;99.90
51908;DHT22;39320;53.214;6.556;2023-02-21T02:10:26;9.90;99.90
51908;DHT22;39320;53.214;6.556;2023-02-21T02:24:45;9.90;99.90
51908;DHT22;39320;53.214;6.556;2023-02-21T02:36:37;10.00;99.90
51908;DHT22;39320;53.214;6.556;2023-02-21T02:41:33;10.00;99.90
51908;DHT22;39320;53.214;6.556;2023-02-21T02:46:30;10.00;99.90
51908;DHT22;39320;53.214;6.556;2023-02-21T02:49:11;10.00;99.90
51908;DHT22;39320;53.214;6.556;2023-02-21T02:51:38;10.00;99.90
51908;DHT22;39320;53.214;6.556;2023-02-21T02:54:04;10.00;99.90
51908;DHT22;39320;53.214;6.556;2023-02-21T02:56:30;10.00;99.90
51908;DHT22;39320;53.214;6.556;2023-02-21T02:59:10;10.00;99.90
51908;DHT22;39320;53.214;6.556;2023-02-21T03:06:59;9.90;99.90
51908;DHT22;39320;53.214;6.556;2023-02-21T03:09:51;9.90;99.90
51908;DHT22;39320;53.214;6.556;2023-02-21T03:15:40;9.90;99.90
51908;DHT22;39320;53.214;6.556;2023-02-21T03:21:10;9.90;99.90
51908;DHT22;39320;53.214;6.556;2023-02-21T03:23:36;9.90;99.90
51908;DHT22;39320;53.214;6.556;2023-02-21T03:26:06;9.80;99.90
51908;DHT22;39320;53.214;6.556;2023-02-21T03:28:34;9.90;99.90
51908;DHT22;39320;53.214;6.556;2023-02-21T03:31:01;9.90;99.90
51908;DHT22;39320;53.214;6.556;2023-02-21T03:33:28;9.90;99.90
51908;DHT22;39320;53.214;6.556;2023-02-21T03:35:55;9.90;99.90
51908;DHT22;39320;53.214;6.556;2023-02-21T03:38:23;9.90;99.90
51908;DHT22;39320;53.214;6.556;2023-02-21T03:40:48;9.80;99.90
51908;DHT22;39320;53.214;6.556;2023-02-21T03:43:14;9.80;99.90
51908;DHT22;39320;53.214;6.556;2023-02-21T03:45:40;9.80;99.90
51908;DHT22;39320;53.214;6.556;2023-02-21T03:48:05;9.80;99.90
51908;DHT22;39320;53.214;6.556;2023-02-21T03:50:31;9.80;99.90
51908;DHT22;39320;53.214;6.556;2023-02-21T03:52:57;9.80;99.90
51908;DHT22;39320;53.214;6.556;2023-02-21T03:55:23;9.80;99.90
51908;DHT22;39320;53.214;6.556;2023-02-21T03:57:49;9.80;99.90
51908;DHT22;39320;53.214;6.556;2023-02-21T04:00:15;9.80;99.90
51908;DHT22;39320;53.214;6.556;2023-02-21T04:02:41;9.80;99.90
51908;DHT22;39320;53.214;6.556;2023-02-21T04:05:07;9.80;99.90
51908;DHT22;39320;53.214;6.556;2023-02-21T04:07:33;9.80;99.90
51908;DHT22;39320;53.214;6.556;2023-02-21T04:09:58;9.80;99.90
51908;DHT22;39320;53.214;6.556;2023-02-21T04:12:25;9.80;99.90
51908;DHT22;39320;53.214;6.556;2023-02-21T04:14:51;9.80;99.90
51908;DHT22;39320;53.214;6.556;2023-02-21T04:17:17;9.80;99.90
51908;DHT22;39320;53.214;6.556;2023-02-21T04:19:43;9.80;99.90
51908;DHT22;39320;53.214;6.556;2023-02-21T04:22:09;9.80;99.90
51908;DHT22;39320;53.214;6.556;2023-02-21T04:24:34;9.80;99.90
51908;DHT22;39320;53.214;6.556;2023-02-21T04:27:00;9.80;99.90
51908;DHT22;39320;53.214;6.556;2023-02-21T04:29:26;9.80;99.90
51908;DHT22;39320;53.214;6.556;2023-02-21T04:31:52;9.90;99.90
51908;DHT22;39320;53.214;6.556;2023-02-21T04:34:18;9.80;99.90
51908;DHT22;39320;53.214;6.556;2023-02-21T04:36:44;9.80;99.90
51908;DHT22;39320;53.214;6.556;2023-02-21T04:39:10;9.80;99.90
51908;DHT22;39320;53.214;6.556;2023-02-21T04:41:36;9.80;99.90
51908;DHT22;39320;53.214;6.556;2023-02-21T04:44:02;9.80;99.90
51908;DHT22;39320;53.214;6.556;2023-02-21T04:46:27;9.80;99.90
51908;DHT22;39320;53.214;6.556;2023-02-21T04:48:53;9.80;99.90
51908;DHT22;39320;53.214;6.556;2023-02-21T04:51:22;9.80;99.90
51908;DHT22;39320;53.214;6.556;2023-02-21T04:53:49;9.80;99.90
51908;DHT22;39320;53.214;6.556;2023-02-21T04:56:17;9.80;99.90
51908;DHT22;39320;53.214;6.556;2023-02-21T04:58:43;9.80;99.90
51908;DHT22;39320;53.214;6.556;2023-02-21T05:01:13;9.80;99.90
51908;DHT22;39320;53.214;6.556;2023-02-21T05:03:39;9.80;99.90
51908;DHT22;39320;53.214;6.556;2023-02-21T05:06:04;9.70;99.90
51908;DHT22;39320;53.214;6.556;2023-02-21T05:08:30;9.70;99.90
51908;DHT22;39320;53.214;6.556;2023-02-21T05:10:56;9.70;99.90
51908;DHT22;39320;53.214;6.556;2023-02-21T05:13:22;9.70;99.90
51908;DHT22;39320;53.214;6.556;2023-02-21T05:15:48;9.70;99.90
51908;DHT22;39320;53.214;6.556;2023-02-21T05:18:15;9.70;99.90
51908;DHT22;39320;53.214;6.556;2023-02-21T05:20:51;9.70;99.90
51908;DHT22;39320;53.214;6.556;2023-02-21T05:23:17;9.70;99.90
51908;DHT22;39320;53.214;6.556;2023-02-21T05:25:44;9.70;99.90
51908;DHT22;39320;53.214;6.556;2023-02-21T05:28:09;9.70;99.90
51908;DHT22;39320;53.214;6.556;2023-02-21T05:30:35;9.70;99.90
51908;DHT22;39320;53.214;6.556;2023-02-21T05:33:01;9.70;99.90
51908;DHT22;39320;53.214;6.556;2023-02-21T05:35:27;9.70;99.90
51908;DHT22;39320;53.214;6.556;2023-02-21T05:37:53;9.70;99.90
51908;DHT22;39320;53.214;6.556;2023-02-21T05:40:18;9.80;99.90
51908;DHT22;39320;53.214;6.556;2023-02-21T05:42:45;9.70;99.90
51908;DHT22;39320;53.214;6.556;2023-02-21T05:45:11;9.70;99.90
51908;DHT22;39320;53.214;6.556;2023-02-21T05:47:37;9.70;99.90
51908;DHT22;39320;53.214;6.556;2023-02-21T05:50:04;9.70;99.90
51908;DHT22;39320;53.214;6.556;2023-02-21T05:52:29;9.70;99.90
51908;DHT22;39320;53.214;6.556;2023-02-21T05:54:55;9.60;99.90
51908;DHT22;39320;53.214;6.556;2023-02-21T05:57:21;9.60;99.90
51908;DHT22;39320;53.214;6.556;2023-02-21T05:59:47;9.70;99.90
51908;DHT22;39320;53.214;6.556;2023-02-21T06:02:13;9.70;99.90
51908;DHT22;39320;53.214;6.556;2023-02-21T06:04:39;9.70;99.90
51908;DHT22;39320;53.214;6.556;2023-02-21T06:07:05;9.70;99.90
51908;DHT22;39320;53.214;6.556;2023-02-21T06:09:31;9.60;99.90
51908;DHT22;39320;53.214;6.556;2023-02-21T06:11:57;9.70;99.90
51908;DHT22;39320;53.214;6.556;2023-02-21T06:14:24;9.60;99.90
51908;DHT22;39320;53.214;6.556;2023-02-21T06:16:50;9.70;99.90
51908;DHT22;39320;53.214;6.556;2023-02-21T06:19:16;9.70;99.90
51908;DHT22;39320;53.214;6.556;2023-02-21T06:21:43;9.60;99.90
51908;DHT22;39320;53.214;6.556;2023-02-21T06:24:10;9.60;99.90
51908;DHT22;39320;53.214;6.556;2023-02-21T06:26:36;9.60;99.90
51908;DHT22;39320;53.214;6.556;2023-02-21T06:29:06;9.60;99.90
51908;DHT22;39320;53.214;6.556;2023-02-21T06:31:32;9.60;99.90
51908;DHT22;39320;53.214;6.556;2023-02-21T06:33:58;9.60;99.90
51908;DHT22;39320;53.214;6.556;2023-02-21T06:36:26;9.60;99.90
51908;DHT22;39320;53.214;6.556;2023-02-21T06:38:53;9.60;99.90
51908;DHT22;39320;53.214;6.556;2023-02-21T06:41:24;9.60;99.90
51908;DHT22;39320;53.214;6.556;2023-02-21T06:43:51;9.60;99.90
51908;DHT22;39320;53.214;6.556;2023-02-21T06:46:19;9.60;99.90
51908;DHT22;39320;53.214;6.556;2023-02-21T06:48:45;9.60;99.90
51908;DHT22;39320;53.214;6.556;2023-02-21T06:51:11;9.60;99.90
51908;DHT22;39320;53.214;6.556;2023-02-21T06:53:40;9.60;99.90
51908;DHT22;39320;53.214;6.556;2023-02-21T06:56:06;9.60;99.90
51908;DHT22;39320;53.214;6.556;2023-02-21T06:58:32;9.60;99.90
51908;DHT22;39320;53.214;6.556;2023-02-21T07:00:58;9.60;99.90
51908;DHT22;39320;53.214;6.556;2023-02-21T07:03:24;9.60;99.90
51908;DHT22;39320;53.214;6.556;2023-02-21T07:05:49;9.60;99.90
51908;DHT22;39320;53.214;6.556;2023-02-21T07:08:15;9.50;99.90
51908;DHT22;39320;53.214;6.556;2023-02-21T07:10:41;9.60;99.90
51908;DHT22;39320;53.214;6.556;2023-02-21T07:13:07;9.60;99.90
51908;DHT22;39320;53.214;6.556;2023-02-21T07:15:33;9.60;99.90
51908;DHT22;39320;53.214;6.556;2023-02-21T07:17:59;9.60;99.90
51908;DHT22;39320;53.214;6.556;2023-02-21T07:20:24;9.60;99.90
51908;DHT22;39320;53.214;6.556;2023-02-21T07:22:50;9.60;99.90
51908;DHT22;39320;53.214;6.556;2023-02-21T07:25:18;9.60;99.90
51908;DHT22;39320;53.214;6.556;2023-02-21T07:27:46;9.60;99.90
51908;DHT22;39320;53.214;6.556;2023-02-21T07:30:12;9.60;99.90
51908;DHT22;39320;53.214;6.556;2023-02-21T07:32:38;9.60;99.90
51908;DHT22;39320;53.214;6.556;2023-02-21T07:35:04;9.60;99.90
51908;DHT22;39320;53.214;6.556;2023-02-21T07:37:30;9.60;99.90
51908;DHT22;39320;53.214;6.556;2023-02-21T07:39:59;9.60;99.90
51908;DHT22;39320;53.214;6.556;2023-02-21T07:42:24;9.60;99.90
51908;DHT22;39320;53.214;6.556;2023-02-21T07:44:57;9.60;99.90
51908;DHT22;39320;53.214;6.556;2023-02-21T07:47:24;9.60;99.90
51908;DHT22;39320;53.214;6.556;2023-02-21T07:49:50;9.60;99.90
51908;DHT22;39320;53.214;6.556;2023-02-21T07:52:19;9.60;99.90
51908;DHT22;39320;53.214;6.556;2023-02-21T07:54:45;9.60;99.90
51908;DHT22;39320;53.214;6.556;2023-02-21T07:57:11;9.60;99.90
51908;DHT22;39320;53.214;6.556;2023-02-21T07:59:37;9.60;99.90
51908;DHT22;39320;53.214;6.556;2023-02-21T08:02:04;9.60;99.90
51908;DHT22;39320;53.214;6.556;2023-02-21T08:04:30;9.60;99.90
51908;DHT22;39320;53.214;6.556;2023-02-21T08:06:59;9.60;99.90
51908;DHT22;39320;53.214;6.556;2023-02-21T08:09:25;9.60;99.90
51908;DHT22;39320;53.214;6.556;2023-02-21T08:11:51;9.60;99.90
51908;DHT22;39320;53.214;6.556;2023-02-21T08:14:17;9.60;99.90
51908;DHT22;39320;53.214;6.556;2023-02-21T08:16:43;9.60;99.90
51908;DHT22;39320;53.214;6.556;2023-02-21T08:19:08;9.60;99.90
51908;DHT22;39320;53.214;6.556;2023-02-21T08:21:34;9.60;99.90
51908;DHT22;39320;53.214;6.556;2023-02-21T08:24:00;9.60;99.90
51908;DHT22;39320;53.214;6.556;2023-02-21T08:26:26;9.60;99.90
51908;DHT22;39320;53.214;6.556;2023-02-21T08:28:52;9.60;99.90
51908;DHT22;39320;53.214;6.556;2023-02-21T08:31:18;9.60;99.90
51908;DHT22;39320;53.214;6.556;2023-02-21T08:33:44;9.60;99.90
51908;DHT22;39320;53.214;6.556;2023-02-21T08:36:10;9.60;99.90
51908;DHT22;39320;53.214;6.556;2023-02-21T08:38:36;9.60;99.90
51908;DHT22;39320;53.214;6.556;2023-02-21T08:41:02;9.60;99.90
51908;DHT22;39320;53.214;6.556;2023-02-21T08:43:31;9.60;99.90
51908;DHT22;39320;53.214;6.556;2023-02-21T08:45:57;9.60;99.90
51908;DHT22;39320;53.214;6.556;2023-02-21T08:48:23;9.60;99.90
51908;DHT22;39320;53.214;6.556;2023-02-21T08:50:49;9.60;99.90
51908;DHT22;39320;53.214;6.556;2023-02-21T08:53:16;9.60;99.90
51908;DHT22;39320;53.214;6.556;2023-02-21T08:55:42;9.70;99.90
51908;DHT22;39320;53.214;6.556;2023-02-21T08:58:09;9.60;99.90
51908;DHT22;39320;53.214;6.556;2023-02-21T09:00:35;9.70;99.90
51908;DHT22;39320;53.214;6.556;2023-02-21T09:03:01;9.70;99.90
51908;DHT22;39320;53.214;6.556;2023-02-21T09:05:29;9.60;99.90
51908;DHT22;39320;53.214;6.556;2023-02-21T09:08:07;9.70;99.90
51908;DHT22;39320;53.214;6.556;2023-02-21T09:10:36;9.70;99.90
51908;DHT22;39320;53.214;6.556;2023-02-21T09:13:03;9.60;99.90
51908;DHT22;39320;53.214;6.556;2023-02-21T09:15:28;9.70;99.90
51908;DHT22;39320;53.214;6.556;2023-02-21T09:17:54;9.70;99.90
51908;DHT22;39320;53.214;6.556;2023-02-21T09:20:23;9.70;99.90
51908;DHT22;39320;53.214;6.556;2023-02-21T09:22:50;9.80;99.90
51908;DHT22;39320;53.214;6.556;2023-02-21T09:25:19;9.80;99.90
51908;DHT22;39320;53.214;6.556;2023-02-21T09:27:46;9.90;99.90
51908;DHT22;39320;53.214;6.556;2023-02-21T09:30:18;9.80;99.90
51908;DHT22;39320;53.214;6.556;2023-02-21T09:32:44;9.80;99.90
51908;DHT22;39320;53.214;6.556;2023-02-21T09:35:12;9.80;99.90
51908;DHT22;39320;53.214;6.556;2023-02-21T09:37:42;9.90;99.90
51908;DHT22;39320;53.214;6.556;2023-02-21T09:43:06;9.90;99.90
51908;DHT22;39320;53.214;6.556;2023-02-21T09:45:35;9.90;99.90
51908;DHT22;39320;53.214;6.556;2023-02-21T09:48:08;9.90;99.90
51908;DHT22;39320;53.214;6.556;2023-02-21T09:50:42;9.90;99.90
51908;DHT22;39320;53.214;6.556;2023-02-21T09:53:12;9.90;99.90
51908;DHT22;39320;53.214;6.556;2023-02-21T09:55:39;9.90;99.90
51908;DHT22;39320;53.214;6.556;2023-02-21T09:58:11;9.90;99.90
51908;DHT22;39320;53.214;6.556;2023-02-21T10:00:38;9.90;99.90
51908;DHT22;39320;53.214;6.556;2023-02-21T10:09:24;9.90;99.90
51908;DHT22;39320;53.214;6.556;2023-02-21T10:12:01;9.90;99.90
51908;DHT22;39320;53.214;6.556;2023-02-21T10:17:34;10.00;99.90
51908;DHT22;39320;53.214;6.556;2023-02-21T10:23:59;10.00;99.90
51908;DHT22;39320;53.214;6.556;2023-02-21T10:26:12;10.00;99.90
51908;DHT22;39320;53.214;6.556;2023-02-21T10:28:38;10.00;99.90
51908;DHT22;39320;53.214;6.556;2023-02-21T10:31:33;10.10;99.90
51908;DHT22;39320;53.214;6.556;2023-02-21T10:33:56;10.10;99.90
51908;DHT22;39320;53.214;6.556;2023-02-21T10:36:24;10.10;99.90
51908;DHT22;39320;53.214;6.556;2023-02-21T10:38:58;10.10;99.90
51908;DHT22;39320;53.214;6.556;2023-02-21T10:41:28;10.10;99.90
51908;DHT22;39320;53.214;6.556;2023-02-21T10:44:13;10.10;99.90
51908;DHT22;39320;53.214;6.556;2023-02-21T10:47:07;10.40;99.90
51908;DHT22;39320;53.214;6.556;2023-02-21T10:50:03;10.10;99.90
51908;DHT22;39320;53.214;6.556;2023-02-21T10:52:36;10.20;99.90
51908;DHT22;39320;53.214;6.556;2023-02-21T10:55:13;10.20;99.90
51908;DHT22;39320;53.214;6.556;2023-02-21T10:57:43;10.20;99.90
51908;DHT22;39320;53.214;6.556;2023-02-21T11:00:22;10.10;99.90
51908;DHT22;39320;53.214;6.556;2023-02-21T11:02:54;10.10;99.90
51908;DHT22;39320;53.214;6.556;2023-02-21T11:05:21;10.20;99.90
51908;DHT22;39320;53.214;6.556;2023-02-21T11:08:01;10.10;99.90
51908;DHT22;39320;53.214;6.556;2023-02-21T11:10:33;10.20;99.90
51908;DHT22;39320;53.214;6.556;2023-02-21T11:13:12;10.20;99.90
51908;DHT22;39320;53.214;6.556;2023-02-21T11:15:39;10.20;99.90
51908;DHT22;39320;53.214;6.556;2023-02-21T11:18:18;10.20;99.90
51908;DHT22;39320;53.214;6.556;2023-02-21T11:20:46;10.20;99.90
51908;DHT22;39320;53.214;6.556;2023-02-21T11:23:24;10.20;99.90
51908;DHT22;39320;53.214;6.556;2023-02-21T11:25:57;10.20;99.90
51908;DHT22;39320;53.214;6.556;2023-02-21T11:28:24;10.20;99.90
51908;DHT22;39320;53.214;6.556;2023-02-21T11:31:06;10.20;99.90
51908;DHT22;39320;53.214;6.556;2023-02-21T11:33:39;10.20;99.90
51908;DHT22;39320;53.214;6.556;2023-02-21T11:36:17;10.30;99.90
51908;DHT22;39320;53.214;6.556;2023-02-21T11:38:58;10.30;99.90
51908;DHT22;39320;53.214;6.556;2023-02-21T11:41:30;10.30;99.90
51908;DHT22;39320;53.214;6.556;2023-02-21T11:43:59;10.30;99.90
51908;DHT22;39320;53.214;6.556;2023-02-21T11:46:45;10.30;99.90
51908;DHT22;39320;53.214;6.556;2023-02-21T11:52:12;10.30;99.90
51908;DHT22;39320;53.214;6.556;2023-02-21T11:54:39;10.30;99.90
51908;DHT22;39320;53.214;6.556;2023-02-21T11:57:39;10.40;99.90
51908;DHT22;39320;53.214;6.556;2023-02-21T12:16:26;10.40;99.90
51908;DHT22;39320;53.214;6.556;2023-02-21T12:22:00;10.40;99.90
51908;DHT22;39320;53.214;6.556;2023-02-21T12:24:38;10.40;99.90
51908;DHT22;39320;53.214;6.556;2023-02-21T12:38:42;10.40;99.90
51908;DHT22;39320;53.214;6.556;2023-02-21T12:49:23;10.40;99.90
51908;DHT22;39320;53.214;6.556;2023-02-21T12:52:01;10.40;99.90
51908;DHT22;39320;53.214;6.556;2023-02-21T12:54:36;10.40;99.90
51908;DHT22;39320;53.214;6.556;2023-02-21T12:57:25;10.50;99.90
51908;DHT22;39320;53.214;6.556;2023-02-21T13:03:00;10.50;99.90
51908;DHT22;39320;53.214;6.556;2023-02-21T13:05:43;10.50;99.90
51908;DHT22;39320;53.214;6.556;2023-02-21T13:08:26;10.50;99.90
51908;DHT22;39320;53.214;6.556;2023-02-21T13:13:37;10.50;99.90
51908;DHT22;39320;53.214;6.556;2023-02-21T13:16:05;10.60;99.90
51908;DHT22;39320;53.214;6.556;2023-02-21T13:18:38;10.60;99.90
51908;DHT22;39320;53.214;6.556;2023-02-21T13:23:52;10.60;99.90
51908;DHT22;39320;53.214;6.556;2023-02-21T13:29:30;10.60;99.90
51908;DHT22;39320;53.214;6.556;2023-02-21T13:32:17;10.60;99.90
51908;DHT22;39320;53.214;6.556;2023-02-21T13:34:59;10.60;99.90
51908;DHT22;39320;53.214;6.556;2023-02-21T13:37:28;10.60;99.90
51908;DHT22;39320;53.214;6.556;2023-02-21T13:40:03;10.60;99.90
51908;DHT22;39320;53.214;6.556;2023-02-21T13:42:34;10.60;99.90
51908;DHT22;39320;53.214;6.556;2023-02-21T13:45:22;10.60;99.90
51908;DHT22;39320;53.214;6.556;2023-02-21T13:53:24;10.60;99.90
51908;DHT22;39320;53.214;6.556;2023-02-21T13:58:46;10.60;99.90
51908;DHT22;39320;53.214;6.556;2023-02-21T14:01:17;10.60;99.90
51908;DHT22;39320;53.214;6.556;2023-02-21T14:03:43;10.60;99.90
51908;DHT22;39320;53.214;6.556;2023-02-21T14:08:47;10.60;99.90
51908;DHT22;39320;53.214;6.556;2023-02-21T14:11:19;10.60;99.90
51908;DHT22;39320;53.214;6.556;2023-02-21T14:14:03;10.60;99.90
51908;DHT22;39320;53.214;6.556;2023-02-21T14:16:36;10.50;99.90
51908;DHT22;39320;53.214;6.556;2023-02-21T14:19:22;10.50;99.90
51908;DHT22;39320;53.214;6.556;2023-02-21T14:22:16;10.60;99.90
51908;DHT22;39320;53.214;6.556;2023-02-21T14:24:48;10.50;99.90
51908;DHT22;39320;53.214;6.556;2023-02-21T14:30:29;10.40;99.90
51908;DHT22;39320;53.214;6.556;2023-02-21T14:33:06;10.50;99.90
51908;DHT22;39320;53.214;6.556;2023-02-21T14:35:36;10.40;99.90
51908;DHT22;39320;53.214;6.556;2023-02-21T14:38:06;10.40;99.90
51908;DHT22;39320;53.214;6.556;2023-02-21T14:41:04;10.40;99.90
51908;DHT22;39320;53.214;6.556;2023-02-21T14:55:21;10.30;99.90
51908;DHT22;39320;53.214;6.556;2023-02-21T15:03:30;10.30;99.90
51908;DHT22;39320;53.214;6.556;2023-02-21T15:06:03;10.30;99.90
51908;DHT22;39320;53.214;6.556;2023-02-21T15:08:40;10.30;99.90
51908;DHT22;39320;53.214;6.556;2023-02-21T15:11:18;10.30;99.90
51908;DHT22;39320;53.214;6.556;2023-02-21T15:13:44;10.30;99.90
51908;DHT22;39320;53.214;6.556;2023-02-21T15:16:13;10.30;99.90
51908;DHT22;39320;53.214;6.556;2023-02-21T15:19:02;10.20;99.90
51908;DHT22;39320;53.214;6.556;2023-02-21T15:21:27;10.20;99.90
51908;DHT22;39320;53.214;6.556;2023-02-21T15:24:02;10.20;99.90
51908;DHT22;39320;53.214;6.556;2023-02-21T15:26:31;10.10;99.90
51908;DHT22;39320;53.214;6.556;2023-02-21T15:29:17;10.10;99.90
51908;DHT22;39320;53.214;6.556;2023-02-21T15:31:52;10.10;99.90
51908;DHT22;39320;53.214;6.556;2023-02-21T15:34:24;10.10;99.90
51908;DHT22;39320;53.214;6.556;2023-02-21T15:37:07;10.00;99.90
51908;DHT22;39320;53.214;6.556;2023-02-21T15:39:39;10.00;99.90
51908;DHT22;39320;53.214;6.556;2023-02-21T15:42:09;10.00;99.90
51908;DHT22;39320;53.214;6.556;2023-02-21T15:44:39;10.00;99.90
51908;DHT22;39320;53.214;6.556;2023-02-21T15:47:19;10.00;99.90
51908;DHT22;39320;53.214;6.556;2023-02-21T15:50:11;10.00;99.90
51908;DHT22;39320;53.214;6.556;2023-02-21T15:52:46;10.00;99.90
51908;DHT22;39320;53.214;6.556;2023-02-21T16:00:41;10.00;99.90
51908;DHT22;39320;53.214;6.556;2023-02-21T16:09:17;9.90;99.90
51908;DHT22;39320;53.214;6.556;2023-02-21T16:11:55;9.90;99.90
51908;DHT22;39320;53.214;6.556;2023-02-21T16:14:40;9.90;99.90
51908;DHT22;39320;53.214;6.556;2023-02-21T16:17:32;9.80;99.90
51908;DHT22;39320;53.214;6.556;2023-02-21T16:22:48;9.90;99.90
51908;DHT22;39320;53.214;6.556;2023-02-21T16:25:18;9.80;99.90
51908;DHT22;39320;53.214;6.556;2023-02-21T16:27:48;9.80;99.90
51908;DHT22;39320;53.214;6.556;2023-02-21T16:30:23;9.80;99.90
51908;DHT22;39320;53.214;6.556;2023-02-21T16:32:50;9.80;99.90
51908;DHT22;39320;53.214;6.556;2023-02-21T16:35:20;9.80;99.90
51908;DHT22;39320;53.214;6.556;2023-02-21T16:37:52;9.80;99.90
51908;DHT22;39320;53.214;6.556;2023-02-21T16:40:21;9.80;99.90
51908;DHT22;39320;53.214;6.556;2023-02-21T16:42:53;9.70;99.90
51908;DHT22;39320;53.214;6.556;2023-02-21T16:45:20;9.80;99.90
51908;DHT22;39320;53.214;6.556;2023-02-21T16:47:48;9.80;99.90
51908;DHT22;39320;53.214;6.556;2023-02-21T16:50:32;10.00;99.90
51908;DHT22;39320;53.214;6.556;2023-02-21T16:52:59;9.70;99.90
51908;DHT22;39320;53.214;6.556;2023-02-21T16:55:26;9.80;99.90
51908;DHT22;39320;53.214;6.556;2023-02-21T16:58:04;9.70;99.90
51908;DHT22;39320;53.214;6.556;2023-02-21T17:00:31;9.70;99.90
51908;DHT22;39320;53.214;6.556;2023-02-21T17:02:58;9.70;99.90
51908;DHT22;39320;53.214;6.556;2023-02-21T17:05:24;9.70;99.90
51908;DHT22;39320;53.214;6.556;2023-02-21T17:07:52;9.70;99.90
51908;DHT22;39320;53.214;6.556;2023-02-21T17:10:19;9.70;99.90
51908;DHT22;39320;53.214;6.556;2023-02-21T17:12:45;9.70;99.90
51908;DHT22;39320;53.214;6.556;2023-02-21T17:15:12;9.70;99.90
51908;DHT22;39320;53.214;6.556;2023-02-21T17:17:38;9.70;99.90
51908;DHT22;39320;53.214;6.556;2023-02-21T17:20:13;9.70;99.90
51908;DHT22;39320;53.214;6.556;2023-02-21T17:22:39;9.70;99.90
51908;DHT22;39320;53.214;6.556;2023-02-21T17:25:05;9.70;99.90
51908;DHT22;39320;53.214;6.556;2023-02-21T17:27:31;9.80;99.90
51908;DHT22;39320;53.214;6.556;2023-02-21T17:29:57;9.80;99.90
51908;DHT22;39320;53.214;6.556;2023-02-21T17:32:22;9.70;99.90
51908;DHT22;39320;53.214;6.556;2023-02-21T17:34:48;9.80;99.90
51908;DHT22;39320;53.214;6.556;2023-02-21T17:37:14;9.70;99.90
51908;DHT22;39320;53.214;6.556;2023-02-21T17:39:39;9.80;99.90
51908;DHT22;39320;53.214;6.556;2023-02-21T17:42:06;9.70;99.90
51908;DHT22;39320;53.214;6.556;2023-02-21T17:44:32;9.70;99.90
51908;DHT22;39320;53.214;6.556;2023-02-21T17:46:58;9.70;99.90
51908;DHT22;39320;53.214;6.556;2023-02-21T17:49:25;9.70;99.90
51908;DHT22;39320;53.214;6.556;2023-02-21T17:51:52;9.80;99.90
51908;DHT22;39320;53.214;6.556;2023-02-21T17:54:21;9.80;99.90
51908;DHT22;39320;53.214;6.556;2023-02-21T17:56:48;9.80;99.90
51908;DHT22;39320;53.214;6.556;2023-02-21T17:59:13;9.80;99.90
51908;DHT22;39320;53.214;6.556;2023-02-21T18:01:39;9.80;99.90
51908;DHT22;39320;53.214;6.556;2023-02-21T18:04:06;9.80;99.90
51908;DHT22;39320;53.214;6.556;2023-02-21T18:06:32;9.80;99.90
51908;DHT22;39320;53.214;6.556;2023-02-21T18:08:57;9.80;99.90
51908;DHT22;39320;53.214;6.556;2023-02-21T18:11:24;9.80;99.90
51908;DHT22;39320;53.214;6.556;2023-02-21T18:13:51;9.80;99.90
51908;DHT22;39320;53.214;6.556;2023-02-21T18:16:17;9.80;99.90
51908;DHT22;39320;53.214;6.556;2023-02-21T18:18:43;9.80;99.90
51908;DHT22;39320;53.214;6.556;2023-02-21T18:21:09;9.80;99.90
51908;DHT22;39320;53.214;6.556;2023-02-21T18:23:36;9.70;99.90
51908;DHT22;39320;53.214;6.556;2023-02-21T18:26:05;9.70;99.90
51908;DHT22;39320;53.214;6.556;2023-02-21T18:28:30;9.80;99.90
51908;DHT22;39320;53.214;6.556;2023-02-21T18:30:56;9.80;99.90
51908;DHT22;39320;53.214;6.556;2023-02-21T18:33:23;9.80;99.90
51908;DHT22;39320;53.214;6.556;2023-02-21T18:35:52;9.70;99.90
51908;DHT22;39320;53.214;6.556;2023-02-21T18:38:18;9.70;99.90
51908;DHT22;39320;53.214;6.556;2023-02-21T18:40:44;9.70;99.90
51908;DHT22;39320;53.214;6.556;2023-02-21T18:43:17;9.70;99.90